• Join FlightAware (Why Join?)
  • Login
  • US Flag 
11:52PM EST


 

Airport Tracker/Info


-or-


 

Live Flight TrackerFlight Track Log ✈ N897CA ✈ 21-Aug-2013 ✈ M01 - KILG

Flight Track Log - Related Links

Times and Time Zones

All times are in EDT time to prevent confusion due to time zone crossing. See the N897CA flight status page for this flight to view local times or setup timezone preferences in your user account.

Time Position Orientation Groundspeed Altitude Reporting Facility
EDT Latitude Longitude Course Direction KTS MPH feet Rate Location/Type
01:24PM 35.2500 -90.0667 360° North 165 190 1,200  Level KMEM
01:25PM 35.3167 -90.0667 360° North 209 241 1,500 720 Climbing KMEM
01:26PM 35.3167 -90.0167 90° East 190 219 2,800 1,200 Climbing KMEM
01:27PM 35.3167 -89.9667 90° East 185 213 3,800 1,140 Climbing KMEM
01:28PM 35.3000 -89.8833 104° East 191 220 5,200 1,380 Climbing KMEM
01:29PM 35.3000 -89.8333 90° East 192 221 6,700 900 Climbing KMEM
01:30PM 35.2833 -89.7667 107° East 229 264 7,000 120 Climbing KMEM
01:31PM 35.2500 -89.6833 116° Southeast 260 299 7,000  Level KMEM
01:32PM 35.2283 -89.6200 113° Southeast 264 304 7,000 720 Level Memphis Center
01:33PM 35.2278 -89.5386 90° East 234 269 8,400 1,560 Climbing Memphis Center
01:34PM 35.2314 -89.4647 87° East 205 236 10,100 1,620 Climbing Memphis Center
01:35PM 35.2456 -89.3858 78° East 205 236 11,700 1,380 Climbing Memphis Center
01:36PM 35.2553 -89.3222 79° East 225 259 12,900 1,140 Climbing Memphis Center
01:37PM 35.2672 -89.2508 78° East 219 252 14,000 540 Climbing Memphis Center
01:38PM 35.2811 -89.1667 79° East 233 268 14,000  Level Memphis Center
01:39PM 35.2989 -89.0747 77° East 256 295 14,100 780 Climbing Memphis Center
01:40PM 35.3422 -89.0106 50° Northeast 242 278 15,600 1,440 Climbing Memphis Center
01:41PM 35.3769 -88.9514 54° Northeast 225 259 17,000 1,320 Climbing Memphis Center
01:42PM 35.4139 -88.8947 51° Northeast 218 251 18,300 1,260 Climbing Memphis Center
01:43PM 35.4467 -88.8431 52° Northeast 213 245 19,600 1,320 Climbing Memphis Center
01:44PM 35.4875 -88.7761 53° Northeast 213 245 21,000 1,200 Climbing Memphis Center
01:45PM 35.5242 -88.7192 52° Northeast 213 245 22,100 1,080 Climbing Memphis Center
01:46PM 35.5650 -88.6572 51° Northeast 213 245 23,200 960 Climbing Memphis Center
01:47PM 35.6039 -88.5925 54° Northeast 218 251 24,100 900 Climbing Memphis Center
01:48PM 35.6447 -88.5306 51° Northeast 228 262 25,000 420 Climbing Memphis Center
01:49PM 35.6894 -88.4578 53° Northeast 239 275 25,000  Level Memphis Center
01:50PM 35.7403 -88.3800 51° Northeast 268 308 25,000  Level Memphis Center
01:51PM 35.7953 -88.2942 52° Northeast 292 336 25,000  Level Memphis Center
01:52PM 35.8461 -88.2136 52° Northeast 298 343 25,000  Level Memphis Center
01:53PM 35.8906 -88.1431 52° Northeast 303 349 25,000  Level Memphis Center
01:54PM 35.9475 -88.0544 52° Northeast 303 349 25,000  Level Memphis Center
01:55PM 36.0022 -87.9683 52° Northeast 308 354 25,000  Level Memphis Center
01:56PM 36.0567 -87.8819 52° Northeast 308 354 25,000  Level Memphis Center
01:57PM 36.1111 -87.7931 53° Northeast 317 365 25,000  Level Memphis Center
01:58PM 36.1656 -87.7064 52° Northeast 317 365 25,000  Level Memphis Center
01:59PM 36.2239 -87.6094 53° Northeast 317 365 25,000  Level Memphis Center
02:00PM 36.2783 -87.5225 52° Northeast 322 371 25,000  Level Memphis Center
02:01PM 36.3306 -87.4331 54° Northeast 322 371 25,000  Level Memphis Center
02:02PM 36.3847 -87.3486 51° Northeast 322 371 25,000  Level Memphis Center
02:03PM 36.4389 -87.2589 53° Northeast 322 371 25,000  Level Memphis Center
02:04PM 36.4928 -87.1717 52° Northeast 322 371 25,000  Level Memphis Center
02:05PM 36.5408 -87.0922 53° Northeast 322 371 25,000  Level Memphis Center
02:06PM 36.5947 -87.0050 52° Northeast 322 371 25,000  Level Memphis Center
02:07PM 36.6464 -86.9147 54° Northeast 322 371 25,000  Level Memphis Center
02:08PM 36.7003 -86.8269 53° Northeast 322 371 25,000  Level Memphis Center
02:09PM 36.7561 -86.7367 52° Northeast 322 371 25,000  Level Memphis Center
02:10PM 36.8114 -86.6383 55° Northeast 322 371 25,000  Level Memphis Center
02:11PM 36.8669 -86.5475 53° Northeast 322 371 25,000  Level Memphis Center
02:12PM 36.9206 -86.4592 53° Northeast 322 371 25,000  Level Memphis Center
02:13PM 36.9569 -86.3536 67° East 327 376 25,000  Level Memphis Center
02:14PM 37.0108 -86.2139 64° Northeast 336 387 25,000  Level Indianapolis Center
02:15PM 37.0600 -86.1144 58° Northeast 334 384 25,000  Level Indianapolis Center
02:16PM 37.1089 -86.0139 59° Northeast 335 386 25,000  Level Indianapolis Center
02:17PM 37.1575 -85.9139 59° Northeast 334 384 25,000  Level Indianapolis Center
02:18PM 37.2075 -85.8144 58° Northeast 333 383 25,000  Level Indianapolis Center
02:19PM 37.2564 -85.7153 58° Northeast 332 382 25,000  Level Indianapolis Center
02:20PM 37.3114 -85.6003 59° Northeast 334 384 25,000  Level Indianapolis Center
02:21PM 37.3492 -85.5058 63° Northeast 334 384 25,000  Level Indianapolis Center
02:23PM 37.3931 -85.3817 66° East 335 386 25,000  Level Indianapolis Center
02:24PM 37.4261 -85.2703 69° East 338 389 25,000  Level Indianapolis Center
02:25PM 37.4508 -85.1542 75° East 343 395 25,000  Level Indianapolis Center
02:26PM 37.4603 -85.0353 84° East 344 396 25,000  Level Indianapolis Center
02:27PM 37.4547 -84.9150 93° East 345 397 25,000  Level Indianapolis Center
02:28PM 37.4422 -84.7950 97° East 346 398 25,000  Level Indianapolis Center
02:29PM 37.4222 -84.6550 100° East 347 399 25,000  Level Indianapolis Center
02:30PM 37.4033 -84.5369 101° East 345 397 25,000  Level Indianapolis Center
02:31PM 37.3933 -84.4167 96° East 346 398 25,000  Level Indianapolis Center
02:32PM 37.3953 -84.2972 89° East 358 412 25,000  Level Indianapolis Center
02:33PM 37.4331 -84.1853 67° East 347 399 25,000  Level Indianapolis Center
02:34PM 37.4725 -84.0722 66° East 350 403 25,000  Level Indianapolis Center
02:35PM 37.5181 -83.9411 66° East 351 404 25,000  Level Indianapolis Center
02:36PM 37.5561 -83.8275 67° East 350 403 25,000  Level Indianapolis Center
02:37PM 37.5944 -83.7119 67° East 355 409 25,000  Level Indianapolis Center
02:38PM 37.6331 -83.5972 67° East 352 405 25,000  Level Indianapolis Center
02:39PM 37.6717 -83.4847 67° East 348 400 25,000  Level Indianapolis Center
02:40PM 37.7075 -83.3775 67° East 335 386 25,000  Level Indianapolis Center
02:41PM 37.7442 -83.2681 67° East 335 386 25,000  Level Indianapolis Center
02:42PM 37.7875 -83.1383 67° East 343 395 25,000  Level Indianapolis Center
02:43PM 37.8244 -83.0253 67° East 346 398 25,000  Level Indianapolis Center
02:44PM 37.8603 -82.9164 67° East 337 388 25,000  Level Indianapolis Center
02:45PM 37.8983 -82.8006 67° East 350 403 25,000  Level Indianapolis Center
02:46PM 37.9358 -82.6858 67° East 351 404 25,000  Level Indianapolis Center
02:47PM 37.9733 -82.5728 67° East 349 402 25,000  Level Indianapolis Center
02:48PM 38.0150 -82.4425 68° East 343 395 25,000  Level Indianapolis Center
02:49PM 38.0519 -82.3300 67° East 344 396 25,000  Level Indianapolis Center
02:50PM 38.0883 -82.2178 68° East 344 396 25,000  Level Indianapolis Center
02:51PM 38.1228 -82.1097 68° East 345 397 25,000  Level Indianapolis Center
02:52PM 38.1583 -81.9978 68° East 343 395 25,000  Level Indianapolis Center
02:53PM 38.1942 -81.8864 68° East 342 394 25,000  Level Indianapolis Center
02:55PM 38.2367 -81.7531 68° East 341 392 25,000  Level Indianapolis Center
02:56PM 38.2725 -81.6414 68° East 343 395 25,000  Level Indianapolis Center
02:57PM 38.3211 -81.5372 59° Northeast 345 397 25,000  Level Indianapolis Center
02:58PM 38.3764 -81.4403 54° Northeast 342 394 25,000  Level Indianapolis Center
02:59PM 38.4336 -81.3442 53° Northeast 342 394 25,000  Level Indianapolis Center
03:00PM 38.5078 -81.2333 49° Northeast 343 395 25,000  Level Indianapolis Center
03:01PM 38.5703 -81.1422 49° Northeast 344 396 25,000  Level Indianapolis Center
03:02PM 38.6336 -81.0528 48° Northeast 343 395 25,000  Level Indianapolis Center
03:03PM 38.6986 -80.9642 47° Northeast 342 394 25,000  Level Indianapolis Center
03:04PM 38.7642 -80.8767 46° Northeast 342 394 25,000  Level Indianapolis Center
03:05PM 38.8278 -80.7869 48° Northeast 341 392 25,000  Level Indianapolis Center
03:06PM 38.9000 -80.6753 50° Northeast 339 390 25,000  Level Indianapolis Center
03:07PM 38.9572 -80.5783 53° Northeast 341 392 25,000  Level Indianapolis Center
03:08PM 39.0264 -80.4992 42° Northeast 336 387 25,000  Level Indianapolis Center
03:09PM 39.0994 -80.4225 39° Northeast 339 390 25,000  Level Indianapolis Center
03:10PM 39.1736 -80.3489 38° Northeast 338 389 25,000  Level Indianapolis Center
03:11PM 39.2467 -80.2719 39° Northeast 338 389 25,000  Level Indianapolis Center
03:12PM 39.2947 -80.1425 64° Northeast 332 382 25,000  Level Indianapolis Center
03:13PM 39.3339 -80.0331 65° Northeast 334 384 25,000  Level Indianapolis Center
03:14PM 39.3769 -79.9283 62° Northeast 333 383 25,000  Level Indianapolis Center
03:15PM 39.4331 -79.8325 53° Northeast 335 386 25,000  Level Indianapolis Center
03:16PM 39.4875 -79.7361 54° Northeast 331 381 25,000  Level Indianapolis Center
03:17PM 39.5483 -79.6408 50° Northeast 330 380 25,000  Level Cleveland Center
03:18PM 39.6017 -79.5458 54° Northeast 330 380 25,000  Level Cleveland Center
03:19PM 39.6447 -79.4456 61° Northeast 325 374 25,000  Level Cleveland Center
03:20PM 39.6767 -79.3342 70° East 320 368 25,000  Level Cleveland Center
03:21PM 39.7089 -79.2231 69° East 320 368 25,000  Level Cleveland Center
03:22PM 39.7408 -79.1117 70° East 320 368 25,000  Level Cleveland Center
03:23PM 39.7728 -79.0056 69° East 320 368 25,000 -60 Level Cleveland Center
03:24PM 39.8003 -78.8969 72° East 320 368 24,900 -660 Descending Cleveland Center
03:25PM 39.8381 -78.7689 69° East 325 374 23,700 -1,140 Descending Cleveland Center
03:26PM 39.8694 -78.6517 71° East 331 381 22,700 -960 Descending Cleveland Center
03:27PM 39.9008 -78.5344 71° East 337 388 21,800 -960 Descending Cleveland Center
03:28PM 39.9342 -78.4197 69° East 337 388 20,800 -1,020 Descending Cleveland Center
03:29PM 39.9653 -78.3050 70° East 332 382 19,800 -1,020 Descending Cleveland Center
03:31PM 40.0286 -78.0856 69° East 332 382 17,800 -900 Descending New York Center
03:32PM 40.0461 -77.9681 79° East 332 382 17,000 -420 Descending New York Center
03:33PM 40.0508 -77.8575 87° East 320 368 17,000 -60 Level New York Center
03:34PM 40.0569 -77.7522 86° East 305 351 16,900 -60 Descending New York Center
03:35PM 40.0592 -77.6439 88° East 300 345 16,900  Level New York Center
03:36PM 40.0656 -77.5333 86° East 300 345 17,000  Climbing New York Center
03:37PM 40.0722 -77.4172 86° East 295 339 17,000  Level New York Center
03:38PM 40.0778 -77.3200 86° East 289 333 17,000 -360 Level New York Center
03:39PM 40.0822 -77.1983 87° East 301 346 16,300 -840 Descending New York Center
03:40PM 40.0856 -77.0981 87° East 306 352 15,400 -960 Descending New York Center
03:41PM 40.0922 -76.9714 86° East 312 359 14,400 -1,020 Descending New York Center
03:42PM 40.0975 -76.8739 86° East 306 352 13,400 -1,080 Descending New York Center
03:43PM 40.0992 -76.7600 89° East 289 333 12,300 -1,020 Descending New York Center
03:44PM 40.1056 -76.6739 84° East 279 321 11,400 -1,020 Descending New York Center
03:45PM 40.1108 -76.5631 86° East 274 315 10,300 -1,020 Descending New York Center
03:46PM 40.1139 -76.4628 88° East 274 315 9,400 -660 Descending New York Center
03:47PM 40.1164 -76.3653 88° East 274 315 9,000 -240 Descending New York Center
03:48PM 40.1203 -76.2786 87° East 268 308 9,000  Level New York Center
03:49PM 40.1125 -76.1803 96° East 252 290 9,000  Level New York Center
03:50PM 40.1078 -76.0986 94° East 240 276 9,000 -600 Level New York Center
03:51PM 40.1014 -76.0083 95° East 230 265 7,900 -1,140 Descending New York Center
03:52PM 40.0686 -75.9489 126° Southeast 223 257 6,800 -960 Descending New York Center
03:53PM 40.0206 -75.9047 145° Southeast 218 251 6,000 -480 Descending New York Center
03:54PM 39.9722 -75.8661 149° Southeast 212 244 5,900 -660 Descending New York Center
03:55PM 39.9139 -75.8158 147° Southeast 219 252 4,700 -1,140 Descending New York Center
03:56PM 39.8658 -75.7717 145° Southeast 224 258 3,700 -900 Descending New York Center
03:57PM 39.8094 -75.7244 147° Southeast 224 258 3,000 -540 Descending New York Center
03:58PM 39.7672 -75.6836 143° Southeast 215 247 2,700 -660 Descending New York Center
03:59PM 39.7297 -75.6325 134° Southeast 192 221 1,700 -1,140 Descending New York Center
04:00PM 39.6997 -75.6061 146° Southeast 149 171 500 -720 Descending New York Center
04:01PM 39.6717 -75.5744 139° Southeast 149 171 300 -240 Descending New York Center
04:03PM 39.6667 -75.6000 171° South  Level FlightAware Approximate